createdAt,value
2022-12-25T00:02:15.419Z,100.00
2022-12-25T00:04:42.016Z,100.00
2022-12-25T00:07:08.590Z,100.00
2022-12-25T00:09:35.187Z,100.00
2022-12-25T00:12:01.793Z,100.00
2022-12-25T00:14:28.368Z,100.00
2022-12-25T00:16:55.015Z,100.00
2022-12-25T00:19:21.661Z,100.00
2022-12-25T00:21:48.219Z,100.00
2022-12-25T00:24:14.739Z,100.00
2022-12-25T00:26:41.355Z,100.00
2022-12-25T00:29:12.346Z,100.00
2022-12-25T00:31:38.946Z,100.00
2022-12-25T00:34:05.580Z,100.00
2022-12-25T00:36:37.759Z,100.00
2022-12-25T00:39:07.952Z,100.00
2022-12-25T00:41:53.123Z,100.00
2022-12-25T00:44:19.705Z,100.00
2022-12-25T00:46:46.366Z,100.00
2022-12-25T00:49:13.509Z,100.00
2022-12-25T00:51:40.467Z,100.00
2022-12-25T00:54:07.223Z,100.00
2022-12-25T00:56:34.184Z,100.00
2022-12-25T00:59:00.764Z,100.00
2022-12-25T01:01:27.430Z,100.00
2022-12-25T01:03:55.316Z,100.00
2022-12-25T01:06:21.924Z,100.00
2022-12-25T01:09:06.891Z,100.00
2022-12-25T01:11:33.579Z,100.00
2022-12-25T01:14:00.261Z,100.00
2022-12-25T01:16:27.348Z,100.00
2022-12-25T01:18:54.121Z,100.00
2022-12-25T01:21:21.367Z,100.00
2022-12-25T01:23:50.147Z,100.00
2022-12-25T01:26:18.015Z,100.00
2022-12-25T01:28:44.645Z,100.00
2022-12-25T01:31:15.325Z,100.00
2022-12-25T01:33:43.386Z,100.00
2022-12-25T01:36:17.443Z,100.00
2022-12-25T01:38:44.994Z,100.00
2022-12-25T01:41:12.653Z,100.00
2022-12-25T01:44:19.741Z,100.00
2022-12-25T01:46:46.339Z,100.00
2022-12-25T01:49:18.028Z,100.00
2022-12-25T01:51:47.150Z,100.00
2022-12-25T01:54:19.877Z,100.00
2022-12-25T01:56:48.858Z,100.00
2022-12-25T01:59:19.767Z,100.00
2022-12-25T02:01:46.987Z,100.00
2022-12-25T02:04:21.988Z,100.00
2022-12-25T02:06:51.602Z,100.00
2022-12-25T02:09:18.755Z,100.00
2022-12-25T02:11:59.013Z,100.00
2022-12-25T02:14:30.398Z,100.00
2022-12-25T02:17:07.328Z,100.00
2022-12-25T02:19:52.627Z,100.00
2022-12-25T02:22:50.288Z,100.00
2022-12-25T02:25:38.762Z,100.00
2022-12-25T02:28:13.046Z,100.00
2022-12-25T02:30:44.594Z,100.00
2022-12-25T02:33:34.781Z,100.00
2022-12-25T02:36:06.243Z,100.00
2022-12-25T02:38:59.867Z,100.00
2022-12-25T02:41:30.527Z,100.00
2022-12-25T02:44:18.470Z,100.00
2022-12-25T02:47:04.330Z,100.00
2022-12-25T02:49:52.547Z,100.00
2022-12-25T02:52:40.817Z,100.00
2022-12-25T02:55:32.921Z,100.00
2022-12-25T02:58:27.281Z,100.00
2022-12-25T03:01:21.535Z,100.00
2022-12-25T03:04:08.884Z,100.00
2022-12-25T03:06:43.225Z,100.00
2022-12-25T03:09:32.995Z,100.00
2022-12-25T03:12:05.356Z,100.00
2022-12-25T03:14:50.717Z,100.00
2022-12-25T03:17:17.587Z,100.00
2022-12-25T03:20:02.980Z,100.00
2022-12-25T03:22:50.781Z,100.00
2022-12-25T03:25:37.409Z,100.00
2022-12-25T03:28:05.948Z,100.00
2022-12-25T03:31:13.799Z,100.00
2022-12-25T03:34:08.011Z,100.00
2022-12-25T03:37:17.162Z,100.00
2022-12-25T03:40:26.710Z,100.00
2022-12-25T03:43:19.000Z,100.00
2022-12-25T03:46:10.548Z,100.00
2022-12-25T03:49:01.487Z,100.00
2022-12-25T03:51:51.936Z,100.00
2022-12-25T03:54:41.589Z,100.00
2022-12-25T03:57:28.427Z,100.00
2022-12-25T04:00:13.797Z,100.00
2022-12-25T04:02:58.861Z,100.00
2022-12-25T04:05:44.037Z,100.00
2022-12-25T04:08:29.099Z,100.00
2022-12-25T04:11:14.007Z,100.00
2022-12-25T04:13:58.907Z,100.00
2022-12-25T04:16:43.861Z,100.00
2022-12-25T04:19:29.168Z,100.00
2022-12-25T04:22:14.203Z,100.00
2022-12-25T04:24:59.339Z,100.00
2022-12-25T04:27:44.235Z,100.00
2022-12-25T04:30:29.363Z,100.00
2022-12-25T04:33:17.821Z,100.00
2022-12-25T04:36:08.704Z,100.00
2022-12-25T04:38:36.653Z,100.00
2022-12-25T04:41:03.749Z,100.00
2022-12-25T04:43:30.329Z,100.00
2022-12-25T04:45:58.910Z,100.00
2022-12-25T04:48:26.687Z,100.00
2022-12-25T04:50:53.750Z,100.00
2022-12-25T04:53:20.905Z,100.00
2022-12-25T04:55:47.509Z,100.00
2022-12-25T04:58:14.589Z,100.00
2022-12-25T05:00:41.636Z,100.00
2022-12-25T05:03:08.293Z,100.00
2022-12-25T05:05:38.352Z,100.00
2022-12-25T05:08:05.824Z,100.00
2022-12-25T05:10:32.424Z,100.00
2022-12-25T05:12:59.129Z,100.00
2022-12-25T05:15:25.727Z,100.00
2022-12-25T05:17:52.300Z,100.00
2022-12-25T05:20:18.901Z,100.00
2022-12-25T05:22:45.540Z,100.00
2022-12-25T05:25:12.118Z,100.00
2022-12-25T05:27:38.680Z,100.00
2022-12-25T05:30:05.771Z,100.00
2022-12-25T05:32:32.367Z,100.00
2022-12-25T05:35:00.411Z,100.00
2022-12-25T05:37:26.990Z,100.00
2022-12-25T05:39:53.570Z,100.00
2022-12-25T05:42:20.135Z,100.00
2022-12-25T05:44:46.835Z,100.00
2022-12-25T05:47:13.483Z,100.00
2022-12-25T05:49:40.067Z,100.00
2022-12-25T05:52:06.625Z,100.00
2022-12-25T05:54:35.254Z,100.00
2022-12-25T05:57:02.088Z,100.00
2022-12-25T05:59:33.299Z,100.00
2022-12-25T06:02:00.599Z,100.00
2022-12-25T06:04:27.498Z,100.00
2022-12-25T06:06:54.061Z,100.00
2022-12-25T06:09:20.637Z,100.00
2022-12-25T06:11:47.201Z,100.00
2022-12-25T06:14:15.615Z,100.00
2022-12-25T06:16:42.598Z,100.00
2022-12-25T06:19:09.223Z,100.00
2022-12-25T06:21:35.817Z,100.00
2022-12-25T06:24:02.684Z,100.00
2022-12-25T06:26:29.353Z,100.00
2022-12-25T06:28:55.897Z,100.00
2022-12-25T06:31:23.655Z,100.00
2022-12-25T06:33:50.579Z,100.00
2022-12-25T06:36:20.259Z,100.00
2022-12-25T06:38:46.948Z,100.00
2022-12-25T06:41:18.870Z,100.00
2022-12-25T06:43:51.187Z,100.00
2022-12-25T06:46:18.806Z,100.00
2022-12-25T06:48:49.337Z,100.00
2022-12-25T06:51:17.845Z,100.00
2022-12-25T06:53:44.493Z,100.00
2022-12-25T06:56:16.425Z,100.00
2022-12-25T06:58:57.038Z,100.00
2022-12-25T07:01:27.250Z,100.00
2022-12-25T07:03:58.126Z,100.00
2022-12-25T07:06:26.380Z,100.00
2022-12-25T07:08:53.036Z,100.00
2022-12-25T07:11:20.461Z,100.00
2022-12-25T07:13:47.471Z,100.00
2022-12-25T07:16:15.464Z,100.00
2022-12-25T07:18:42.334Z,100.00
2022-12-25T07:21:14.336Z,100.00
2022-12-25T07:23:42.171Z,100.00
2022-12-25T07:26:10.482Z,100.00
2022-12-25T07:28:37.315Z,100.00
2022-12-25T07:31:06.379Z,100.00
2022-12-25T07:33:33.979Z,100.00
2022-12-25T07:36:00.808Z,100.00
2022-12-25T07:38:27.764Z,100.00
2022-12-25T07:40:54.541Z,100.00
2022-12-25T07:43:21.126Z,100.00
2022-12-25T07:45:47.778Z,100.00
2022-12-25T07:48:16.785Z,100.00
2022-12-25T07:50:43.866Z,100.00
2022-12-25T07:53:10.466Z,100.00
2022-12-25T07:55:37.093Z,100.00
2022-12-25T07:58:03.692Z,100.00
2022-12-25T08:00:33.988Z,100.00
2022-12-25T08:03:00.840Z,100.00
2022-12-25T08:05:27.753Z,100.00
2022-12-25T08:07:57.665Z,100.00
2022-12-25T08:10:24.832Z,100.00
2022-12-25T08:12:52.095Z,100.00
2022-12-25T08:15:18.690Z,100.00
2022-12-25T08:17:45.256Z,100.00
2022-12-25T08:20:12.229Z,100.00
2022-12-25T08:22:38.808Z,100.00
2022-12-25T08:25:05.538Z,100.00
2022-12-25T08:27:32.200Z,100.00
2022-12-25T08:29:58.744Z,100.00
2022-12-25T08:32:25.351Z,100.00
2022-12-25T08:34:51.923Z,100.00
2022-12-25T08:37:18.516Z,100.00
2022-12-25T08:39:45.170Z,100.00
2022-12-25T08:42:11.693Z,100.00
2022-12-25T08:44:38.422Z,100.00
2022-12-25T08:47:05.064Z,100.00
2022-12-25T08:49:31.941Z,100.00
2022-12-25T08:51:58.772Z,100.00
2022-12-25T08:54:25.343Z,100.00
2022-12-25T08:56:53.332Z,100.00
2022-12-25T08:59:21.730Z,100.00
2022-12-25T09:01:48.460Z,100.00
2022-12-25T09:04:15.204Z,100.00
2022-12-25T09:06:41.759Z,100.00
2022-12-25T09:09:08.320Z,100.00
2022-12-25T09:11:34.859Z,100.00
2022-12-25T09:14:01.458Z,100.00
2022-12-25T09:16:28.449Z,97.78
2022-12-25T09:18:56.699Z,93.13
2022-12-25T09:21:23.224Z,94.62
2022-12-25T09:23:50.074Z,89.39
2022-12-25T09:26:18.330Z,88.61
2022-12-25T09:28:51.234Z,90.10
2022-12-25T09:31:20.073Z,88.85
2022-12-25T09:33:47.039Z,86.77
2022-12-25T09:36:13.818Z,92.51
2022-12-25T09:38:40.495Z,92.67
2022-12-25T09:41:38.261Z,96.05
2022-12-25T09:44:16.781Z,84.94
2022-12-25T09:46:55.829Z,80.77
2022-12-25T09:49:48.521Z,79.97
2022-12-25T09:52:22.066Z,66.42
2022-12-25T09:54:54.100Z,62.95
2022-12-25T09:57:20.776Z,60.16
2022-12-25T09:59:47.657Z,60.76
2022-12-25T10:02:51.807Z,54.70
2022-12-25T10:05:39.647Z,49.35
2022-12-25T10:08:41.242Z,47.86
2022-12-25T10:11:39.200Z,47.84
2022-12-25T10:14:35.407Z,46.86
2022-12-25T10:17:32.131Z,46.04
2022-12-25T10:20:13.588Z,44.93
2022-12-25T10:22:45.811Z,44.27
2022-12-25T10:25:20.505Z,43.63
2022-12-25T10:27:51.736Z,42.86
2022-12-25T10:30:26.283Z,41.75
2022-12-25T10:32:54.887Z,40.91
2022-12-25T10:35:24.272Z,43.31
2022-12-25T10:37:58.939Z,39.95
2022-12-25T10:40:58.032Z,39.22
2022-12-25T10:43:49.843Z,38.76
2022-12-25T10:46:17.582Z,38.03
2022-12-25T10:48:51.862Z,39.65
2022-12-25T10:51:34.640Z,37.94
2022-12-25T10:54:25.140Z,36.86
2022-12-25T10:56:57.487Z,35.46
2022-12-25T10:59:29.426Z,34.73
2022-12-25T11:02:03.783Z,35.53
2022-12-25T11:04:35.618Z,35.85
2022-12-25T11:07:07.577Z,34.91
2022-12-25T11:09:34.657Z,34.31
2022-12-25T11:12:01.512Z,32.36
2022-12-25T11:14:29.247Z,32.53
2022-12-25T11:16:56.160Z,32.23
2022-12-25T11:19:32.874Z,33.49
2022-12-25T11:22:01.900Z,32.76
2022-12-25T11:24:31.240Z,32.52
2022-12-25T11:27:01.708Z,31.95
2022-12-25T11:29:48.920Z,32.61
2022-12-25T11:32:46.543Z,32.65
2022-12-25T11:35:16.311Z,31.64
2022-12-25T11:37:52.956Z,32.92
2022-12-25T11:40:24.936Z,32.80
2022-12-25T11:42:55.594Z,32.10
2022-12-25T11:45:31.715Z,31.75
2022-12-25T11:48:24.651Z,32.48
2022-12-25T11:50:59.732Z,31.39
2022-12-25T11:53:41.202Z,31.29
2022-12-25T11:56:11.309Z,30.43
2022-12-25T11:58:50.066Z,30.08
2022-12-25T12:01:29.300Z,30.45
2022-12-25T12:03:57.938Z,31.81
2022-12-25T12:06:43.545Z,33.33
2022-12-25T12:09:35.430Z,34.20
2022-12-25T12:12:17.328Z,32.02
2022-12-25T12:15:00.633Z,30.81
2022-12-25T12:17:27.240Z,30.83
2022-12-25T12:19:53.834Z,30.66
2022-12-25T12:22:23.807Z,32.44
2022-12-25T12:25:01.471Z,33.40
2022-12-25T12:27:36.120Z,33.68
2022-12-25T12:30:04.385Z,35.28
2022-12-25T12:32:42.736Z,35.48
2022-12-25T12:35:17.385Z,36.79
2022-12-25T12:37:46.769Z,37.20
2022-12-25T12:40:35.723Z,37.57
2022-12-25T12:43:02.930Z,36.00
2022-12-25T12:45:33.712Z,35.88
2022-12-25T12:48:00.804Z,33.27
2022-12-25T12:50:27.488Z,33.58
2022-12-25T12:52:54.055Z,34.22
2022-12-25T12:55:34.929Z,33.82
2022-12-25T12:58:05.111Z,33.93
2022-12-25T13:00:52.413Z,33.40
2022-12-25T13:04:05.294Z,35.24
2022-12-25T13:07:05.865Z,36.67
2022-12-25T13:09:56.869Z,37.15
2022-12-25T13:12:23.916Z,38.92
2022-12-25T13:14:51.029Z,38.57
2022-12-25T13:17:22.519Z,40.69
2022-12-25T13:19:55.345Z,42.16
2022-12-25T13:22:30.993Z,41.96
2022-12-25T13:25:00.465Z,43.78
2022-12-25T13:27:30.616Z,43.81
2022-12-25T13:29:58.570Z,45.51
2022-12-25T13:32:28.217Z,46.00
2022-12-25T13:34:55.441Z,47.23
2022-12-25T13:37:25.462Z,46.62
2022-12-25T13:39:56.543Z,47.35
2022-12-25T13:42:28.619Z,47.69
2022-12-25T13:45:00.568Z,47.65
2022-12-25T13:47:32.245Z,48.83
2022-12-25T13:50:02.754Z,48.69
2022-12-25T13:52:37.613Z,50.56
2022-12-25T13:55:12.608Z,52.14
2022-12-25T13:57:59.760Z,52.64
2022-12-25T14:00:38.068Z,51.27
2022-12-25T14:03:09.736Z,49.88
2022-12-25T14:05:43.102Z,48.71
2022-12-25T14:08:15.846Z,47.27
2022-12-25T14:10:45.940Z,47.01
2022-12-25T14:13:15.788Z,46.93
2022-12-25T14:15:45.029Z,48.32
2022-12-25T14:18:16.675Z,48.50
2022-12-25T14:21:01.271Z,48.84
2022-12-25T14:23:31.112Z,48.52
2022-12-25T14:25:57.701Z,49.95
2022-12-25T14:28:32.177Z,50.61
2022-12-25T14:31:02.889Z,50.25
2022-12-25T14:33:36.752Z,50.74
2022-12-25T14:36:03.652Z,51.50
2022-12-25T14:38:40.956Z,52.12
2022-12-25T14:41:34.916Z,52.71
2022-12-25T14:44:03.915Z,53.94
2022-12-25T14:46:33.183Z,54.12
2022-12-25T14:49:07.148Z,53.85
2022-12-25T14:51:38.199Z,54.66
2022-12-25T14:54:17.354Z,55.15
2022-12-25T14:56:48.478Z,56.45
2022-12-25T14:59:20.922Z,57.36
2022-12-25T15:01:57.600Z,58.36
2022-12-25T15:04:25.916Z,57.31
2022-12-25T15:07:11.383Z,60.02
2022-12-25T15:09:38.095Z,59.09
2022-12-25T15:12:04.961Z,60.51
2022-12-25T15:14:31.570Z,61.32
2022-12-25T15:17:01.294Z,61.46
2022-12-25T15:19:38.704Z,63.61
2022-12-25T15:22:06.382Z,62.91
2022-12-25T15:24:33.006Z,63.75
2022-12-25T15:27:00.626Z,62.56
2022-12-25T15:30:07.340Z,64.10
2022-12-25T15:32:19.039Z,63.61
2022-12-25T15:34:47.250Z,64.40
2022-12-25T15:37:14.453Z,63.69
2022-12-25T15:39:41.566Z,64.63
2022-12-25T15:42:16.887Z,65.66
2022-12-25T15:44:44.706Z,65.50
2022-12-25T15:47:16.155Z,66.19
2022-12-25T15:49:43.697Z,66.40
2022-12-25T15:52:14.377Z,66.73
2022-12-25T15:54:41.186Z,67.24
2022-12-25T15:57:22.392Z,67.50
2022-12-25T15:59:49.059Z,69.10
2022-12-25T16:02:18.457Z,68.42
2022-12-25T16:04:45.624Z,68.82
2022-12-25T16:07:18.341Z,69.41
2022-12-25T16:09:45.032Z,70.62
2022-12-25T16:12:11.861Z,70.51
2022-12-25T16:14:38.448Z,70.14
2022-12-25T16:17:05.828Z,70.16
2022-12-25T16:19:32.457Z,70.12
2022-12-25T16:21:59.209Z,70.52
2022-12-25T16:24:25.785Z,71.58
2022-12-25T16:26:52.345Z,70.66
2022-12-25T16:29:18.921Z,71.10
2022-12-25T16:31:45.630Z,71.94
2022-12-25T16:34:12.237Z,71.02
2022-12-25T16:36:39.308Z,72.20
2022-12-25T16:39:06.862Z,73.24
2022-12-25T16:41:34.433Z,74.09
2022-12-25T16:44:09.371Z,74.90
2022-12-25T16:46:37.736Z,75.02
2022-12-25T16:49:04.507Z,76.37
2022-12-25T16:51:31.137Z,77.35
2022-12-25T16:53:57.723Z,77.11
2022-12-25T16:56:26.970Z,76.52
2022-12-25T16:58:53.953Z,76.24
2022-12-25T17:01:25.456Z,77.39
2022-12-25T17:03:52.697Z,74.67
2022-12-25T17:06:23.158Z,77.03
2022-12-25T17:08:51.983Z,74.80
2022-12-25T17:11:23.642Z,77.35
2022-12-25T17:13:50.396Z,76.08
2022-12-25T17:16:23.371Z,77.97
2022-12-25T17:19:05.064Z,77.07
2022-12-25T17:21:35.043Z,77.35
2022-12-25T17:24:04.015Z,78.77
2022-12-25T17:26:32.406Z,75.80
2022-12-25T17:28:59.281Z,78.38
2022-12-25T17:31:25.945Z,78.15
2022-12-25T17:33:52.720Z,77.28
2022-12-25T17:36:21.194Z,78.33
2022-12-25T17:38:48.565Z,78.46
2022-12-25T17:41:16.822Z,77.14
2022-12-25T17:43:45.669Z,77.53
2022-12-25T17:46:27.211Z,80.67
2022-12-25T17:48:56.677Z,80.64
2022-12-25T17:51:26.050Z,80.18
2022-12-25T17:53:57.090Z,77.95
2022-12-25T17:56:25.314Z,78.31
2022-12-25T17:58:54.259Z,80.58
2022-12-25T18:01:21.895Z,81.32
2022-12-25T18:03:49.125Z,80.83
2022-12-25T18:06:22.342Z,80.54
2022-12-25T18:08:49.502Z,83.72
2022-12-25T18:11:19.830Z,82.94
2022-12-25T18:13:49.924Z,81.07
2022-12-25T18:16:17.538Z,82.30
2022-12-25T18:18:51.387Z,81.62
2022-12-25T18:21:19.967Z,81.55
2022-12-25T18:23:46.928Z,81.69
2022-12-25T18:26:13.625Z,82.26
2022-12-25T18:28:42.398Z,82.35
2022-12-25T18:31:12.985Z,84.12
2022-12-25T18:33:39.555Z,84.52
2022-12-25T18:36:06.555Z,84.07
2022-12-25T18:38:33.617Z,84.03
2022-12-25T18:41:00.216Z,83.46
2022-12-25T18:43:54.149Z,84.63
2022-12-25T18:46:14.225Z,84.40
2022-12-25T18:48:41.344Z,84.30
2022-12-25T18:51:11.224Z,85.98
2022-12-25T18:53:38.311Z,86.11
2022-12-25T18:56:10.302Z,85.06
2022-12-25T18:58:38.291Z,86.20
2022-12-25T19:01:23.227Z,86.81
2022-12-25T19:03:50.849Z,85.47
2022-12-25T19:06:23.705Z,86.58
2022-12-25T19:08:50.639Z,86.44
2022-12-25T19:11:18.565Z,88.60
2022-12-25T19:13:45.486Z,86.82
2022-12-25T19:16:12.734Z,87.21
2022-12-25T19:18:40.184Z,86.34
2022-12-25T19:21:08.688Z,85.95
2022-12-25T19:23:35.728Z,88.74
2022-12-25T19:26:05.156Z,87.52
2022-12-25T19:28:31.748Z,88.65
2022-12-25T19:31:00.035Z,89.26
2022-12-25T19:33:26.697Z,89.59
2022-12-25T19:35:53.363Z,89.59
2022-12-25T19:38:20.275Z,88.08
2022-12-25T19:41:00.595Z,88.55
2022-12-25T19:43:33.682Z,89.85
2022-12-25T19:46:01.574Z,88.98
2022-12-25T19:48:28.927Z,89.67
2022-12-25T19:50:55.568Z,89.44
2022-12-25T19:53:23.935Z,89.96
2022-12-25T19:55:54.431Z,89.95
2022-12-25T19:58:23.197Z,89.94
2022-12-25T20:01:02.771Z,89.28
2022-12-25T20:03:29.507Z,89.60
2022-12-25T20:05:56.606Z,89.65
2022-12-25T20:08:23.391Z,89.42
2022-12-25T20:10:50.709Z,89.38
2022-12-25T20:13:17.747Z,90.08
2022-12-25T20:15:44.598Z,89.67
2022-12-25T20:18:11.344Z,89.71
2022-12-25T20:20:38.031Z,90.08
2022-12-25T20:23:04.792Z,90.21
2022-12-25T20:25:31.381Z,90.69
2022-12-25T20:27:58.025Z,91.02
2022-12-25T20:30:24.664Z,92.17
2022-12-25T20:32:51.247Z,91.87
2022-12-25T20:35:18.061Z,91.77
2022-12-25T20:37:44.881Z,92.35
2022-12-25T20:40:12.123Z,92.53
2022-12-25T20:42:38.740Z,91.95
2022-12-25T20:45:07.446Z,91.94
2022-12-25T20:47:35.169Z,92.06
2022-12-25T20:50:01.805Z,92.39
2022-12-25T20:52:28.577Z,92.55
2022-12-25T20:54:55.147Z,92.80
2022-12-25T20:57:21.859Z,93.31
2022-12-25T20:59:48.426Z,93.61
2022-12-25T21:02:34.438Z,93.28
2022-12-25T21:05:02.226Z,94.10
2022-12-25T21:07:28.872Z,94.07
2022-12-25T21:09:55.411Z,94.28
2022-12-25T21:12:21.995Z,94.12
2022-12-25T21:14:48.559Z,94.01
2022-12-25T21:17:15.243Z,93.76
2022-12-25T21:19:41.857Z,93.86
2022-12-25T21:22:08.555Z,93.35
2022-12-25T21:24:35.190Z,93.60
2022-12-25T21:27:01.755Z,93.33
2022-12-25T21:29:28.331Z,92.94
2022-12-25T21:32:13.201Z,93.59
2022-12-25T21:34:40.047Z,93.38
2022-12-25T21:37:06.717Z,93.25
2022-12-25T21:39:33.337Z,93.32
2022-12-25T21:41:59.917Z,93.74
2022-12-25T21:44:26.515Z,93.51
2022-12-25T21:46:53.127Z,93.16
2022-12-25T21:49:39.740Z,92.88
2022-12-25T21:52:09.354Z,92.87
2022-12-25T21:54:36.271Z,93.31
2022-12-25T21:57:03.129Z,93.04
2022-12-25T21:59:29.757Z,92.94
2022-12-25T22:01:56.604Z,92.66
2022-12-25T22:04:23.760Z,92.97
2022-12-25T22:07:09.221Z,92.66
2022-12-25T22:09:36.222Z,92.18
2022-12-25T22:12:22.055Z,92.91
2022-12-25T22:14:56.725Z,92.60
2022-12-25T22:17:50.615Z,92.83
2022-12-25T22:20:27.911Z,92.17
2022-12-25T22:22:54.861Z,92.25
2022-12-25T22:25:22.349Z,92.28
2022-12-25T22:27:49.731Z,92.06
2022-12-25T22:30:19.487Z,92.40
2022-12-25T22:32:46.508Z,92.48
2022-12-25T22:35:14.077Z,93.02
2022-12-25T22:37:42.292Z,92.39
2022-12-25T22:40:11.366Z,92.94
2022-12-25T22:42:37.933Z,92.49
2022-12-25T22:45:05.207Z,92.31
2022-12-25T22:47:31.783Z,92.26
2022-12-25T22:49:58.380Z,92.51
2022-12-25T22:52:25.355Z,92.92
2022-12-25T22:54:51.905Z,93.10
2022-12-25T22:57:18.566Z,93.24
2022-12-25T22:59:45.174Z,93.32
2022-12-25T23:02:11.809Z,93.56
2022-12-25T23:04:38.493Z,93.39
2022-12-25T23:07:05.327Z,93.54
2022-12-25T23:09:31.942Z,93.44
2022-12-25T23:11:59.179Z,93.08
2022-12-25T23:14:39.172Z,93.31
2022-12-25T23:17:31.674Z,93.64
2022-12-25T23:20:18.159Z,93.62
2022-12-25T23:23:04.188Z,93.24
2022-12-25T23:25:49.645Z,92.90
2022-12-25T23:28:36.306Z,93.18
2022-12-25T23:31:03.043Z,92.98
2022-12-25T23:33:29.839Z,92.87
2022-12-25T23:35:56.509Z,92.80
2022-12-25T23:38:23.069Z,92.57
2022-12-25T23:40:49.643Z,92.68
2022-12-25T23:43:16.238Z,92.47
2022-12-25T23:45:42.825Z,92.38
2022-12-25T23:48:09.386Z,92.05
2022-12-25T23:50:35.962Z,92.17
2022-12-25T23:53:02.517Z,92.27
2022-12-25T23:55:29.048Z,92.31
2022-12-25T23:57:55.616Z,92.27
